sensor_id;sensor_type;location;lat;lon;timestamp;temperature;humidity
49413;DHT22;35493;50.276;9.372;2023-03-23T00:00:48;13.00;65.70
49413;DHT22;35493;50.276;9.372;2023-03-23T00:03:21;13.00;65.60
49413;DHT22;35493;50.276;9.372;2023-03-23T00:05:56;13.00;65.20
49413;DHT22;35493;50.276;9.372;2023-03-23T00:08:35;13.10;65.50
49413;DHT22;35493;50.276;9.372;2023-03-23T00:11:12;13.10;65.40
49413;DHT22;35493;50.276;9.372;2023-03-23T00:13:48;13.10;65.20
49413;DHT22;35493;50.276;9.372;2023-03-23T00:16:25;13.10;65.20
49413;DHT22;35493;50.276;9.372;2023-03-23T00:19:04;13.10;65.30
49413;DHT22;35493;50.276;9.372;2023-03-23T00:21:39;13.10;65.20
49413;DHT22;35493;50.276;9.372;2023-03-23T00:24:15;13.10;65.30
49413;DHT22;35493;50.276;9.372;2023-03-23T00:26:50;13.10;65.30
49413;DHT22;35493;50.276;9.372;2023-03-23T00:29:25;13.10;65.30
49413;DHT22;35493;50.276;9.372;2023-03-23T00:31:59;13.10;65.60
49413;DHT22;35493;50.276;9.372;2023-03-23T00:34:34;13.10;65.60
49413;DHT22;35493;50.276;9.372;2023-03-23T00:37:07;13.10;65.60
49413;DHT22;35493;50.276;9.372;2023-03-23T00:39:42;13.10;65.80
49413;DHT22;35493;50.276;9.372;2023-03-23T00:42:18;13.10;65.70
49413;DHT22;35493;50.276;9.372;2023-03-23T00:44:53;13.20;65.90
49413;DHT22;35493;50.276;9.372;2023-03-23T00:47:32;13.20;65.70
49413;DHT22;35493;50.276;9.372;2023-03-23T00:50:09;13.20;65.80
49413;DHT22;35493;50.276;9.372;2023-03-23T00:52:46;13.20;65.60
49413;DHT22;35493;50.276;9.372;2023-03-23T00:55:21;13.20;65.60
49413;DHT22;35493;50.276;9.372;2023-03-23T00:57:56;13.20;65.50
49413;DHT22;35493;50.276;9.372;2023-03-23T01:00:43;13.20;65.50
49413;DHT22;35493;50.276;9.372;2023-03-23T01:03:16;13.20;65.50
49413;DHT22;35493;50.276;9.372;2023-03-23T01:05:50;13.20;65.40
49413;DHT22;35493;50.276;9.372;2023-03-23T01:08:25;13.20;65.30
49413;DHT22;35493;50.276;9.372;2023-03-23T01:11:02;13.20;65.20
49413;DHT22;35493;50.276;9.372;2023-03-23T01:13:45;13.20;65.30
49413;DHT22;35493;50.276;9.372;2023-03-23T01:16:20;13.20;65.30
49413;DHT22;35493;50.276;9.372;2023-03-23T01:18:54;13.20;65.60
49413;DHT22;35493;50.276;9.372;2023-03-23T01:21:28;13.20;65.30
49413;DHT22;35493;50.276;9.372;2023-03-23T01:24:02;13.20;65.20
49413;DHT22;35493;50.276;9.372;2023-03-23T01:26:36;13.20;65.30
49413;DHT22;35493;50.276;9.372;2023-03-23T01:29:11;13.20;65.40
49413;DHT22;35493;50.276;9.372;2023-03-23T01:31:45;13.30;65.30
49413;DHT22;35493;50.276;9.372;2023-03-23T01:34:19;13.20;65.10
49413;DHT22;35493;50.276;9.372;2023-03-23T01:36:52;13.20;65.10
49413;DHT22;35493;50.276;9.372;2023-03-23T01:39:25;13.20;65.10
49413;DHT22;35493;50.276;9.372;2023-03-23T01:41:59;13.20;65.20
49413;DHT22;35493;50.276;9.372;2023-03-23T01:48:06;13.20;65.30
49413;DHT22;35493;50.276;9.372;2023-03-23T01:50:47;13.20;65.60
49413;DHT22;35493;50.276;9.372;2023-03-23T01:53:26;13.20;65.60
49413;DHT22;35493;50.276;9.372;2023-03-23T01:56:01;13.20;65.50
49413;DHT22;35493;50.276;9.372;2023-03-23T01:58:42;13.20;65.40
49413;DHT22;35493;50.276;9.372;2023-03-23T02:01:24;13.20;65.10
49413;DHT22;35493;50.276;9.372;2023-03-23T02:03:59;13.30;65.00
49413;DHT22;35493;50.276;9.372;2023-03-23T02:06:35;13.20;65.20
49413;DHT22;35493;50.276;9.372;2023-03-23T02:09:14;13.20;65.20
49413;DHT22;35493;50.276;9.372;2023-03-23T02:11:50;13.20;65.20
49413;DHT22;35493;50.276;9.372;2023-03-23T02:14:24;13.20;65.10
49413;DHT22;35493;50.276;9.372;2023-03-23T02:17:04;13.30;65.10
49413;DHT22;35493;50.276;9.372;2023-03-23T02:19:52;13.30;65.00
49413;DHT22;35493;50.276;9.372;2023-03-23T02:22:57;13.30;65.00
49413;DHT22;35493;50.276;9.372;2023-03-23T02:25:53;13.30;65.30
49413;DHT22;35493;50.276;9.372;2023-03-23T02:28:47;13.30;64.90
49413;DHT22;35493;50.276;9.372;2023-03-23T02:31:36;13.30;65.00
49413;DHT22;35493;50.276;9.372;2023-03-23T02:34:18;13.30;65.00
49413;DHT22;35493;50.276;9.372;2023-03-23T02:36:56;13.30;65.00
49413;DHT22;35493;50.276;9.372;2023-03-23T02:39:35;13.30;65.00
49413;DHT22;35493;50.276;9.372;2023-03-23T02:42:10;13.30;65.10
49413;DHT22;35493;50.276;9.372;2023-03-23T02:44:47;13.30;65.10
49413;DHT22;35493;50.276;9.372;2023-03-23T02:47:23;13.30;65.00
49413;DHT22;35493;50.276;9.372;2023-03-23T02:50:00;13.30;64.80
49413;DHT22;35493;50.276;9.372;2023-03-23T02:52:37;13.30;64.80
49413;DHT22;35493;50.276;9.372;2023-03-23T02:55:11;13.30;65.10
49413;DHT22;35493;50.276;9.372;2023-03-23T02:57:53;13.30;65.00
49413;DHT22;35493;50.276;9.372;2023-03-23T03:00:28;13.30;65.00
49413;DHT22;35493;50.276;9.372;2023-03-23T03:03:04;13.30;65.00
49413;DHT22;35493;50.276;9.372;2023-03-23T03:05:40;13.40;65.10
49413;DHT22;35493;50.276;9.372;2023-03-23T03:08:20;13.30;65.00
49413;DHT22;35493;50.276;9.372;2023-03-23T03:10:59;13.30;65.20
49413;DHT22;35493;50.276;9.372;2023-03-23T03:13:46;13.40;65.40
49413;DHT22;35493;50.276;9.372;2023-03-23T03:16:24;13.30;65.40
49413;DHT22;35493;50.276;9.372;2023-03-23T03:19:05;13.30;65.50
49413;DHT22;35493;50.276;9.372;2023-03-23T03:21:44;13.30;65.90
49413;DHT22;35493;50.276;9.372;2023-03-23T03:24:26;13.30;66.00
49413;DHT22;35493;50.276;9.372;2023-03-23T03:27:01;13.20;66.50
49413;DHT22;35493;50.276;9.372;2023-03-23T03:29:45;13.20;67.10
49413;DHT22;35493;50.276;9.372;2023-03-23T03:32:21;13.20;67.70
49413;DHT22;35493;50.276;9.372;2023-03-23T03:34:56;13.10;68.60
49413;DHT22;35493;50.276;9.372;2023-03-23T03:37:35;13.10;69.80
49413;DHT22;35493;50.276;9.372;2023-03-23T03:40:12;13.00;70.80
49413;DHT22;35493;50.276;9.372;2023-03-23T03:42:45;12.90;71.20
49413;DHT22;35493;50.276;9.372;2023-03-23T03:45:20;12.90;71.70
49413;DHT22;35493;50.276;9.372;2023-03-23T03:47:54;12.80;72.20
49413;DHT22;35493;50.276;9.372;2023-03-23T03:50:29;12.80;72.70
49413;DHT22;35493;50.276;9.372;2023-03-23T03:53:05;12.80;73.20
49413;DHT22;35493;50.276;9.372;2023-03-23T03:55:38;12.70;74.20
49413;DHT22;35493;50.276;9.372;2023-03-23T03:58:17;12.70;74.50
49413;DHT22;35493;50.276;9.372;2023-03-23T04:01:09;12.60;75.00
49413;DHT22;35493;50.276;9.372;2023-03-23T04:03:50;12.60;75.60
49413;DHT22;35493;50.276;9.372;2023-03-23T04:06:31;12.60;75.90
49413;DHT22;35493;50.276;9.372;2023-03-23T04:09:07;12.50;76.90
49413;DHT22;35493;50.276;9.372;2023-03-23T04:11:40;12.50;77.00
49413;DHT22;35493;50.276;9.372;2023-03-23T04:14:34;12.50;77.20
49413;DHT22;35493;50.276;9.372;2023-03-23T04:17:08;12.40;77.80
49413;DHT22;35493;50.276;9.372;2023-03-23T04:19:42;12.40;78.40
49413;DHT22;35493;50.276;9.372;2023-03-23T04:22:16;12.30;78.90
49413;DHT22;35493;50.276;9.372;2023-03-23T04:24:52;12.30;79.40
49413;DHT22;35493;50.276;9.372;2023-03-23T04:27:26;12.30;79.90
49413;DHT22;35493;50.276;9.372;2023-03-23T04:30:01;12.20;80.30
49413;DHT22;35493;50.276;9.372;2023-03-23T04:32:49;12.30;80.40
49413;DHT22;35493;50.276;9.372;2023-03-23T04:35:25;12.30;80.70
49413;DHT22;35493;50.276;9.372;2023-03-23T04:38:10;12.20;81.00
49413;DHT22;35493;50.276;9.372;2023-03-23T04:40:49;12.20;81.20
49413;DHT22;35493;50.276;9.372;2023-03-23T04:43:37;12.20;81.60
49413;DHT22;35493;50.276;9.372;2023-03-23T04:46:26;12.20;81.80
49413;DHT22;35493;50.276;9.372;2023-03-23T04:49:06;12.20;81.80
49413;DHT22;35493;50.276;9.372;2023-03-23T04:51:41;12.20;82.50
49413;DHT22;35493;50.276;9.372;2023-03-23T04:54:39;12.10;82.60
49413;DHT22;35493;50.276;9.372;2023-03-23T04:57:15;12.10;82.60
49413;DHT22;35493;50.276;9.372;2023-03-23T05:00:09;12.10;83.00
49413;DHT22;35493;50.276;9.372;2023-03-23T05:02:54;12.10;82.90
49413;DHT22;35493;50.276;9.372;2023-03-23T05:05:29;12.10;83.10
49413;DHT22;35493;50.276;9.372;2023-03-23T05:08:06;12.00;83.40
49413;DHT22;35493;50.276;9.372;2023-03-23T05:10:41;12.00;83.50
49413;DHT22;35493;50.276;9.372;2023-03-23T05:13:17;12.00;83.50
49413;DHT22;35493;50.276;9.372;2023-03-23T05:15:54;12.00;83.40
49413;DHT22;35493;50.276;9.372;2023-03-23T05:18:27;12.00;83.70
49413;DHT22;35493;50.276;9.372;2023-03-23T05:21:04;12.00;83.90
49413;DHT22;35493;50.276;9.372;2023-03-23T05:23:43;12.00;83.90
49413;DHT22;35493;50.276;9.372;2023-03-23T05:26:20;11.90;84.20
49413;DHT22;35493;50.276;9.372;2023-03-23T05:28:56;11.90;84.30
49413;DHT22;35493;50.276;9.372;2023-03-23T05:31:40;11.90;84.40
49413;DHT22;35493;50.276;9.372;2023-03-23T05:34:15;12.00;84.20
49413;DHT22;35493;50.276;9.372;2023-03-23T05:36:55;11.90;84.50
49413;DHT22;35493;50.276;9.372;2023-03-23T05:39:42;11.90;84.20
49413;DHT22;35493;50.276;9.372;2023-03-23T05:42:16;11.90;84.70
49413;DHT22;35493;50.276;9.372;2023-03-23T05:45:11;11.90;84.50
49413;DHT22;35493;50.276;9.372;2023-03-23T05:47:46;11.90;84.50
49413;DHT22;35493;50.276;9.372;2023-03-23T05:50:21;11.90;84.40
49413;DHT22;35493;50.276;9.372;2023-03-23T05:52:54;11.90;84.40
49413;DHT22;35493;50.276;9.372;2023-03-23T05:55:31;11.90;84.50
49413;DHT22;35493;50.276;9.372;2023-03-23T05:58:18;11.90;84.70
49413;DHT22;35493;50.276;9.372;2023-03-23T06:00:54;11.90;84.90
49413;DHT22;35493;50.276;9.372;2023-03-23T06:03:30;11.90;84.80
49413;DHT22;35493;50.276;9.372;2023-03-23T06:06:15;11.90;84.90
49413;DHT22;35493;50.276;9.372;2023-03-23T06:08:53;11.90;84.90
49413;DHT22;35493;50.276;9.372;2023-03-23T06:11:39;11.90;85.00
49413;DHT22;35493;50.276;9.372;2023-03-23T06:14:42;11.90;84.90
49413;DHT22;35493;50.276;9.372;2023-03-23T06:17:23;11.90;85.00
49413;DHT22;35493;50.276;9.372;2023-03-23T06:19:57;11.90;85.20
49413;DHT22;35493;50.276;9.372;2023-03-23T06:22:30;11.90;85.30
49413;DHT22;35493;50.276;9.372;2023-03-23T06:25:10;11.90;85.40
49413;DHT22;35493;50.276;9.372;2023-03-23T06:27:44;11.90;85.40
49413;DHT22;35493;50.276;9.372;2023-03-23T06:30:19;11.90;85.60
49413;DHT22;35493;50.276;9.372;2023-03-23T06:32:54;11.90;85.60
49413;DHT22;35493;50.276;9.372;2023-03-23T06:35:48;11.90;85.70
49413;DHT22;35493;50.276;9.372;2023-03-23T06:38:45;11.90;85.80
49413;DHT22;35493;50.276;9.372;2023-03-23T06:41:26;11.90;85.80
49413;DHT22;35493;50.276;9.372;2023-03-23T06:44:01;11.90;85.50
49413;DHT22;35493;50.276;9.372;2023-03-23T06:46:34;11.90;85.60
49413;DHT22;35493;50.276;9.372;2023-03-23T06:49:26;11.90;85.60
49413;DHT22;35493;50.276;9.372;2023-03-23T06:52:20;11.90;85.60
49413;DHT22;35493;50.276;9.372;2023-03-23T06:54:54;11.90;85.70
49413;DHT22;35493;50.276;9.372;2023-03-23T06:57:27;11.90;85.80
49413;DHT22;35493;50.276;9.372;2023-03-23T07:00:09;11.90;86.00
49413;DHT22;35493;50.276;9.372;2023-03-23T07:02:45;11.90;86.00
49413;DHT22;35493;50.276;9.372;2023-03-23T07:05:27;12.00;86.20
49413;DHT22;35493;50.276;9.372;2023-03-23T07:08:02;12.00;86.40
49413;DHT22;35493;50.276;9.372;2023-03-23T07:10:41;11.90;86.40
49413;DHT22;35493;50.276;9.372;2023-03-23T07:13:14;12.00;86.40
49413;DHT22;35493;50.276;9.372;2023-03-23T07:15:51;12.10;86.10
49413;DHT22;35493;50.276;9.372;2023-03-23T07:18:25;12.10;86.10
49413;DHT22;35493;50.276;9.372;2023-03-23T07:20:56;12.00;86.40
49413;DHT22;35493;50.276;9.372;2023-03-23T07:23:31;12.10;86.60
49413;DHT22;35493;50.276;9.372;2023-03-23T07:26:08;12.10;86.30
49413;DHT22;35493;50.276;9.372;2023-03-23T07:28:48;12.10;86.20
49413;DHT22;35493;50.276;9.372;2023-03-23T07:31:42;12.10;86.20
49413;DHT22;35493;50.276;9.372;2023-03-23T07:34:15;12.20;86.00
49413;DHT22;35493;50.276;9.372;2023-03-23T07:37:04;12.20;85.80
49413;DHT22;35493;50.276;9.372;2023-03-23T07:39:40;12.20;85.40
49413;DHT22;35493;50.276;9.372;2023-03-23T07:42:14;12.20;86.30
49413;DHT22;35493;50.276;9.372;2023-03-23T07:44:57;12.20;86.40
49413;DHT22;35493;50.276;9.372;2023-03-23T07:47:31;12.20;86.50
49413;DHT22;35493;50.276;9.372;2023-03-23T07:50:06;12.20;86.40
49413;DHT22;35493;50.276;9.372;2023-03-23T07:52:43;12.20;86.00
49413;DHT22;35493;50.276;9.372;2023-03-23T07:55:19;12.20;86.40
49413;DHT22;35493;50.276;9.372;2023-03-23T07:58:06;12.20;86.00
49413;DHT22;35493;50.276;9.372;2023-03-23T08:00:40;12.20;85.50
49413;DHT22;35493;50.276;9.372;2023-03-23T08:03:22;12.30;85.70
49413;DHT22;35493;50.276;9.372;2023-03-23T08:06:17;12.30;86.10
49413;DHT22;35493;50.276;9.372;2023-03-23T08:09:18;12.20;86.20
49413;DHT22;35493;50.276;9.372;2023-03-23T08:12:05;12.20;86.10
49413;DHT22;35493;50.276;9.372;2023-03-23T08:15:02;12.20;85.80
49413;DHT22;35493;50.276;9.372;2023-03-23T08:17:58;12.20;86.40
49413;DHT22;35493;50.276;9.372;2023-03-23T08:20:51;12.20;85.80
49413;DHT22;35493;50.276;9.372;2023-03-23T08:23:49;12.20;86.40
49413;DHT22;35493;50.276;9.372;2023-03-23T08:26:47;12.20;86.60
49413;DHT22;35493;50.276;9.372;2023-03-23T08:29:47;12.20;86.60
49413;DHT22;35493;50.276;9.372;2023-03-23T08:32:51;12.20;87.00
49413;DHT22;35493;50.276;9.372;2023-03-23T08:35:36;12.20;87.00
49413;DHT22;35493;50.276;9.372;2023-03-23T08:38:21;12.20;87.00
49413;DHT22;35493;50.276;9.372;2023-03-23T08:41:21;12.20;86.70
49413;DHT22;35493;50.276;9.372;2023-03-23T08:44:11;12.20;86.70
49413;DHT22;35493;50.276;9.372;2023-03-23T08:47:08;12.20;87.00
49413;DHT22;35493;50.276;9.372;2023-03-23T08:50:16;12.20;86.60
49413;DHT22;35493;50.276;9.372;2023-03-23T08:53:01;12.20;86.90
49413;DHT22;35493;50.276;9.372;2023-03-23T08:55:55;12.20;87.00
49413;DHT22;35493;50.276;9.372;2023-03-23T08:59:04;12.20;86.50
49413;DHT22;35493;50.276;9.372;2023-03-23T09:01:55;12.20;86.20
49413;DHT22;35493;50.276;9.372;2023-03-23T09:04:41;12.30;86.50
49413;DHT22;35493;50.276;9.372;2023-03-23T09:07:34;12.20;86.50
49413;DHT22;35493;50.276;9.372;2023-03-23T09:10:09;12.20;86.70
49413;DHT22;35493;50.276;9.372;2023-03-23T09:12:44;12.20;87.10
49413;DHT22;35493;50.276;9.372;2023-03-23T09:15:18;12.20;87.20
49413;DHT22;35493;50.276;9.372;2023-03-23T09:17:53;12.20;87.30
49413;DHT22;35493;50.276;9.372;2023-03-23T09:20:28;12.20;87.40
49413;DHT22;35493;50.276;9.372;2023-03-23T09:23:02;12.30;87.50
49413;DHT22;35493;50.276;9.372;2023-03-23T09:25:37;12.30;87.70
49413;DHT22;35493;50.276;9.372;2023-03-23T09:28:10;12.30;87.60
49413;DHT22;35493;50.276;9.372;2023-03-23T09:30:44;12.30;87.60
49413;DHT22;35493;50.276;9.372;2023-03-23T09:33:21;12.30;87.60
49413;DHT22;35493;50.276;9.372;2023-03-23T09:35:54;12.30;86.80
49413;DHT22;35493;50.276;9.372;2023-03-23T09:38:29;12.40;87.10
49413;DHT22;35493;50.276;9.372;2023-03-23T09:41:15;12.40;87.50
49413;DHT22;35493;50.276;9.372;2023-03-23T09:44:00;12.40;87.40
49413;DHT22;35493;50.276;9.372;2023-03-23T09:46:48;12.40;87.20
49413;DHT22;35493;50.276;9.372;2023-03-23T09:49:28;12.40;86.80
49413;DHT22;35493;50.276;9.372;2023-03-23T09:52:10;12.50;87.40
49413;DHT22;35493;50.276;9.372;2023-03-23T09:54:47;12.40;87.10
49413;DHT22;35493;50.276;9.372;2023-03-23T09:57:24;12.50;86.80
49413;DHT22;35493;50.276;9.372;2023-03-23T10:00:03;12.60;86.00
49413;DHT22;35493;50.276;9.372;2023-03-23T10:02:52;12.60;86.10
49413;DHT22;35493;50.276;9.372;2023-03-23T10:05:34;12.70;86.30
49413;DHT22;35493;50.276;9.372;2023-03-23T10:08:11;12.80;86.40
49413;DHT22;35493;50.276;9.372;2023-03-23T10:10:52;12.80;85.90
49413;DHT22;35493;50.276;9.372;2023-03-23T10:13:42;12.90;85.40
49413;DHT22;35493;50.276;9.372;2023-03-23T10:16:21;12.90;85.10
49413;DHT22;35493;50.276;9.372;2023-03-23T10:19:00;13.10;85.40
49413;DHT22;35493;50.276;9.372;2023-03-23T10:21:41;13.10;84.80
49413;DHT22;35493;50.276;9.372;2023-03-23T10:24:17;13.20;84.50
49413;DHT22;35493;50.276;9.372;2023-03-23T10:26:58;13.30;84.40
49413;DHT22;35493;50.276;9.372;2023-03-23T10:29:36;13.40;84.30
49413;DHT22;35493;50.276;9.372;2023-03-23T10:32:14;13.40;84.10
49413;DHT22;35493;50.276;9.372;2023-03-23T10:34:50;13.40;83.70
49413;DHT22;35493;50.276;9.372;2023-03-23T10:37:28;13.50;83.50
49413;DHT22;35493;50.276;9.372;2023-03-23T10:40:05;13.40;83.10
49413;DHT22;35493;50.276;9.372;2023-03-23T10:42:42;13.40;82.50
49413;DHT22;35493;50.276;9.372;2023-03-23T10:45:19;13.40;82.50
49413;DHT22;35493;50.276;9.372;2023-03-23T10:47:59;13.40;82.20
49413;DHT22;35493;50.276;9.372;2023-03-23T10:50:36;13.40;82.10
49413;DHT22;35493;50.276;9.372;2023-03-23T10:53:17;13.40;82.00
49413;DHT22;35493;50.276;9.372;2023-03-23T10:55:51;13.50;81.80
49413;DHT22;35493;50.276;9.372;2023-03-23T10:58:28;13.40;81.70
49413;DHT22;35493;50.276;9.372;2023-03-23T11:01:11;13.50;81.50
49413;DHT22;35493;50.276;9.372;2023-03-23T11:03:47;13.50;81.60
49413;DHT22;35493;50.276;9.372;2023-03-23T11:06:24;13.50;81.50
49413;DHT22;35493;50.276;9.372;2023-03-23T11:09:09;13.60;81.30
49413;DHT22;35493;50.276;9.372;2023-03-23T11:11:48;13.60;81.10
49413;DHT22;35493;50.276;9.372;2023-03-23T11:14:25;13.60;81.10
49413;DHT22;35493;50.276;9.372;2023-03-23T11:17:02;13.60;81.20
49413;DHT22;35493;50.276;9.372;2023-03-23T11:19:37;13.60;81.40
49413;DHT22;35493;50.276;9.372;2023-03-23T11:22:21;13.60;81.50
49413;DHT22;35493;50.276;9.372;2023-03-23T11:25:00;13.60;81.50
49413;DHT22;35493;50.276;9.372;2023-03-23T11:27:37;13.60;81.30
49413;DHT22;35493;50.276;9.372;2023-03-23T11:30:20;13.70;81.10
49413;DHT22;35493;50.276;9.372;2023-03-23T11:32:55;13.80;80.90
49413;DHT22;35493;50.276;9.372;2023-03-23T11:35:34;13.90;80.50
49413;DHT22;35493;50.276;9.372;2023-03-23T11:38:15;14.00;80.40
49413;DHT22;35493;50.276;9.372;2023-03-23T11:40:51;14.10;80.30
49413;DHT22;35493;50.276;9.372;2023-03-23T11:43:26;14.10;80.00
49413;DHT22;35493;50.276;9.372;2023-03-23T11:46:03;14.10;79.90
49413;DHT22;35493;50.276;9.372;2023-03-23T11:48:43;14.20;79.60
49413;DHT22;35493;50.276;9.372;2023-03-23T11:51:20;14.30;79.50
49413;DHT22;35493;50.276;9.372;2023-03-23T11:53:59;14.30;79.20
49413;DHT22;35493;50.276;9.372;2023-03-23T11:56:36;14.40;78.90
49413;DHT22;35493;50.276;9.372;2023-03-23T11:59:11;14.50;78.90
49413;DHT22;35493;50.276;9.372;2023-03-23T12:01:56;14.60;78.40
49413;DHT22;35493;50.276;9.372;2023-03-23T12:04:35;14.70;78.40
49413;DHT22;35493;50.276;9.372;2023-03-23T12:07:21;14.80;78.20
49413;DHT22;35493;50.276;9.372;2023-03-23T12:10:06;14.90;78.00
49413;DHT22;35493;50.276;9.372;2023-03-23T12:12:47;15.00;77.70
49413;DHT22;35493;50.276;9.372;2023-03-23T12:15:27;15.10;77.10
49413;DHT22;35493;50.276;9.372;2023-03-23T12:18:13;15.10;76.80
49413;DHT22;35493;50.276;9.372;2023-03-23T12:20:57;15.10;76.60
49413;DHT22;35493;50.276;9.372;2023-03-23T12:23:38;15.10;76.20
49413;DHT22;35493;50.276;9.372;2023-03-23T12:26:21;15.10;75.70
49413;DHT22;35493;50.276;9.372;2023-03-23T12:29:40;15.20;75.40
49413;DHT22;35493;50.276;9.372;2023-03-23T12:32:38;15.20;75.20
49413;DHT22;35493;50.276;9.372;2023-03-23T12:35:30;15.20;74.70
49413;DHT22;35493;50.276;9.372;2023-03-23T12:38:18;15.10;74.40
49413;DHT22;35493;50.276;9.372;2023-03-23T12:41:07;15.00;74.60
49413;DHT22;35493;50.276;9.372;2023-03-23T12:43:51;14.80;74.60
49413;DHT22;35493;50.276;9.372;2023-03-23T12:46:51;14.80;74.80
49413;DHT22;35493;50.276;9.372;2023-03-23T12:49:33;14.70;75.10
49413;DHT22;35493;50.276;9.372;2023-03-23T12:52:12;14.60;74.80
49413;DHT22;35493;50.276;9.372;2023-03-23T12:54:50;14.60;74.80
49413;DHT22;35493;50.276;9.372;2023-03-23T12:57:31;14.70;74.50
49413;DHT22;35493;50.276;9.372;2023-03-23T13:00:14;14.80;74.90
49413;DHT22;35493;50.276;9.372;2023-03-23T13:03:02;14.80;74.60
49413;DHT22;35493;50.276;9.372;2023-03-23T13:05:44;14.90;74.40
49413;DHT22;35493;50.276;9.372;2023-03-23T13:08:21;14.90;74.30
49413;DHT22;35493;50.276;9.372;2023-03-23T13:10:58;15.00;74.60
49413;DHT22;35493;50.276;9.372;2023-03-23T13:13:49;15.00;74.50
49413;DHT22;35493;50.276;9.372;2023-03-23T13:16:37;15.00;74.50
49413;DHT22;35493;50.276;9.372;2023-03-23T13:19:21;15.00;74.20
49413;DHT22;35493;50.276;9.372;2023-03-23T13:22:02;14.90;74.60
49413;DHT22;35493;50.276;9.372;2023-03-23T13:24:46;15.00;74.70
49413;DHT22;35493;50.276;9.372;2023-03-23T13:27:24;15.00;74.60
49413;DHT22;35493;50.276;9.372;2023-03-23T13:29:59;14.90;74.70
49413;DHT22;35493;50.276;9.372;2023-03-23T13:32:38;14.90;74.50
49413;DHT22;35493;50.276;9.372;2023-03-23T13:35:17;14.90;74.60
49413;DHT22;35493;50.276;9.372;2023-03-23T13:37:52;14.90;74.60
49413;DHT22;35493;50.276;9.372;2023-03-23T13:40:28;14.90;74.40
49413;DHT22;35493;50.276;9.372;2023-03-23T13:43:03;14.90;74.30
49413;DHT22;35493;50.276;9.372;2023-03-23T13:45:43;14.90;74.10
49413;DHT22;35493;50.276;9.372;2023-03-23T13:48:20;14.80;74.20
49413;DHT22;35493;50.276;9.372;2023-03-23T13:50:58;14.80;74.40
49413;DHT22;35493;50.276;9.372;2023-03-23T13:53:43;14.80;74.40
49413;DHT22;35493;50.276;9.372;2023-03-23T13:56:19;14.70;74.70
49413;DHT22;35493;50.276;9.372;2023-03-23T13:59:05;14.70;74.80
49413;DHT22;35493;50.276;9.372;2023-03-23T14:01:53;14.70;75.10
49413;DHT22;35493;50.276;9.372;2023-03-23T14:04:31;14.70;74.80
49413;DHT22;35493;50.276;9.372;2023-03-23T14:07:11;14.70;74.80
49413;DHT22;35493;50.276;9.372;2023-03-23T14:09:45;14.70;74.70
49413;DHT22;35493;50.276;9.372;2023-03-23T14:12:17;14.70;75.00
49413;DHT22;35493;50.276;9.372;2023-03-23T14:14:56;14.80;74.80
49413;DHT22;35493;50.276;9.372;2023-03-23T14:17:40;14.90;74.90
49413;DHT22;35493;50.276;9.372;2023-03-23T14:20:26;14.90;74.80
49413;DHT22;35493;50.276;9.372;2023-03-23T14:23:13;14.90;74.70
49413;DHT22;35493;50.276;9.372;2023-03-23T14:26:00;14.90;74.70
49413;DHT22;35493;50.276;9.372;2023-03-23T14:28:42;14.90;74.70
49413;DHT22;35493;50.276;9.372;2023-03-23T14:31:19;14.90;74.40
49413;DHT22;35493;50.276;9.372;2023-03-23T14:33:55;14.90;74.50
49413;DHT22;35493;50.276;9.372;2023-03-23T14:36:31;14.90;74.40
49413;DHT22;35493;50.276;9.372;2023-03-23T14:39:12;14.90;74.30
49413;DHT22;35493;50.276;9.372;2023-03-23T14:41:48;14.90;74.50
49413;DHT22;35493;50.276;9.372;2023-03-23T14:44:24;14.80;74.80
49413;DHT22;35493;50.276;9.372;2023-03-23T14:47:02;14.80;75.00
49413;DHT22;35493;50.276;9.372;2023-03-23T14:49:40;14.80;75.10
49413;DHT22;35493;50.276;9.372;2023-03-23T14:52:15;14.70;75.20
49413;DHT22;35493;50.276;9.372;2023-03-23T14:54:50;14.80;74.90
49413;DHT22;35493;50.276;9.372;2023-03-23T14:57:27;14.90;74.80
49413;DHT22;35493;50.276;9.372;2023-03-23T15:00:02;14.90;74.60
49413;DHT22;35493;50.276;9.372;2023-03-23T15:02:43;14.80;74.70
49413;DHT22;35493;50.276;9.372;2023-03-23T15:05:22;14.80;74.80
49413;DHT22;35493;50.276;9.372;2023-03-23T15:08:02;14.80;74.90
49413;DHT22;35493;50.276;9.372;2023-03-23T15:10:39;14.80;75.10
49413;DHT22;35493;50.276;9.372;2023-03-23T15:13:16;14.80;75.20
49413;DHT22;35493;50.276;9.372;2023-03-23T15:15:50;14.80;75.10
49413;DHT22;35493;50.276;9.372;2023-03-23T15:18:31;14.80;75.10
49413;DHT22;35493;50.276;9.372;2023-03-23T15:21:11;14.80;75.30
49413;DHT22;35493;50.276;9.372;2023-03-23T15:23:44;14.80;75.20
49413;DHT22;35493;50.276;9.372;2023-03-23T15:26:43;14.80;75.30
49413;DHT22;35493;50.276;9.372;2023-03-23T15:29:18;14.70;75.10
49413;DHT22;35493;50.276;9.372;2023-03-23T15:31:54;14.70;75.10
49413;DHT22;35493;50.276;9.372;2023-03-23T15:34:32;14.70;75.10
49413;DHT22;35493;50.276;9.372;2023-03-23T15:37:19;14.60;75.40
49413;DHT22;35493;50.276;9.372;2023-03-23T15:39:53;14.70;75.20
49413;DHT22;35493;50.276;9.372;2023-03-23T15:42:30;14.70;75.20
49413;DHT22;35493;50.276;9.372;2023-03-23T15:45:22;14.80;74.90
49413;DHT22;35493;50.276;9.372;2023-03-23T15:48:08;14.80;74.80
49413;DHT22;35493;50.276;9.372;2023-03-23T15:50:43;14.80;75.00
49413;DHT22;35493;50.276;9.372;2023-03-23T15:53:27;14.80;74.70
49413;DHT22;35493;50.276;9.372;2023-03-23T15:56:03;14.80;74.90
49413;DHT22;35493;50.276;9.372;2023-03-23T15:58:38;14.80;74.80
49413;DHT22;35493;50.276;9.372;2023-03-23T16:01:21;14.80;74.60
49413;DHT22;35493;50.276;9.372;2023-03-23T16:03:59;14.80;74.60
49413;DHT22;35493;50.276;9.372;2023-03-23T16:06:42;14.80;74.40
49413;DHT22;35493;50.276;9.372;2023-03-23T16:09:18;14.80;74.40
49413;DHT22;35493;50.276;9.372;2023-03-23T16:11:53;14.70;74.40
49413;DHT22;35493;50.276;9.372;2023-03-23T16:14:28;14.80;74.30
49413;DHT22;35493;50.276;9.372;2023-03-23T16:17:01;14.70;74.20
49413;DHT22;35493;50.276;9.372;2023-03-23T16:19:35;14.70;74.20
49413;DHT22;35493;50.276;9.372;2023-03-23T16:22:09;14.70;74.30
49413;DHT22;35493;50.276;9.372;2023-03-23T16:24:42;14.70;74.50
49413;DHT22;35493;50.276;9.372;2023-03-23T16:27:17;14.60;74.60
49413;DHT22;35493;50.276;9.372;2023-03-23T16:29:54;14.60;74.70
49413;DHT22;35493;50.276;9.372;2023-03-23T16:32:29;14.60;74.80
49413;DHT22;35493;50.276;9.372;2023-03-23T16:35:03;14.50;75.10
49413;DHT22;35493;50.276;9.372;2023-03-23T16:37:37;14.50;75.20
49413;DHT22;35493;50.276;9.372;2023-03-23T16:40:04;14.50;75.30
49413;DHT22;35493;50.276;9.372;2023-03-23T16:42:40;14.50;75.40
49413;DHT22;35493;50.276;9.372;2023-03-23T16:45:16;14.40;75.40
49413;DHT22;35493;50.276;9.372;2023-03-23T16:47:50;14.40;75.70
49413;DHT22;35493;50.276;9.372;2023-03-23T16:50:23;14.40;75.60
49413;DHT22;35493;50.276;9.372;2023-03-23T16:52:57;14.40;75.90